sensor_id;sensor_type;location;lat;lon;timestamp;P1;durP1;ratioP1;P2;durP2;ratioP2
677;SDS011;321;48.814;9.132;2022-09-01T00:01:41;7.57;;;6.33;;
677;SDS011;321;48.814;9.132;2022-09-01T00:04:09;6.87;;;6.23;;
677;SDS011;321;48.814;9.132;2022-09-01T00:06:37;8.63;;;7.80;;
677;SDS011;321;48.814;9.132;2022-09-01T00:09:08;9.43;;;7.80;;
677;SDS011;321;48.814;9.132;2022-09-01T00:11:36;8.70;;;6.40;;
677;SDS011;321;48.814;9.132;2022-09-01T00:14:03;11.10;;;7.20;;
677;SDS011;321;48.814;9.132;2022-09-01T00:16:30;11.73;;;6.03;;
677;SDS011;321;48.814;9.132;2022-09-01T00:18:56;7.90;;;6.80;;
677;SDS011;321;48.814;9.132;2022-09-01T00:21:35;7.43;;;6.73;;
677;SDS011;321;48.814;9.132;2022-09-01T00:24:03;9.57;;;8.00;;
677;SDS011;321;48.814;9.132;2022-09-01T00:26:29;8.77;;;6.93;;
677;SDS011;321;48.814;9.132;2022-09-01T00:28:54;8.67;;;6.77;;
677;SDS011;321;48.814;9.132;2022-09-01T00:31:21;8.10;;;7.30;;
677;SDS011;321;48.814;9.132;2022-09-01T00:33:47;8.90;;;7.40;;
677;SDS011;321;48.814;9.132;2022-09-01T00:36:14;8.43;;;7.23;;
677;SDS011;321;48.814;9.132;2022-09-01T00:38:40;7.63;;;6.93;;
677;SDS011;321;48.814;9.132;2022-09-01T00:41:06;7.27;;;6.67;;
677;SDS011;321;48.814;9.132;2022-09-01T00:46:18;7.83;;;6.50;;
677;SDS011;321;48.814;9.132;2022-09-01T00:48:46;9.20;;;7.90;;
677;SDS011;321;48.814;9.132;2022-09-01T00:51:17;7.83;;;7.03;;
677;SDS011;321;48.814;9.132;2022-09-01T00:53:42;7.97;;;7.13;;
677;SDS011;321;48.814;9.132;2022-09-01T00:56:10;7.27;;;6.70;;
677;SDS011;321;48.814;9.132;2022-09-01T00:58:37;9.20;;;8.30;;
677;SDS011;321;48.814;9.132;2022-09-01T01:01:04;8.07;;;7.00;;
677;SDS011;321;48.814;9.132;2022-09-01T01:03:32;6.67;;;6.00;;
677;SDS011;321;48.814;9.132;2022-09-01T01:05:59;7.47;;;6.70;;
677;SDS011;321;48.814;9.132;2022-09-01T01:08:29;8.27;;;7.47;;
677;SDS011;321;48.814;9.132;2022-09-01T01:11:08;8.10;;;7.30;;
677;SDS011;321;48.814;9.132;2022-09-01T01:13:52;7.60;;;6.00;;
677;SDS011;321;48.814;9.132;2022-09-01T01:16:21;9.60;;;8.03;;
677;SDS011;321;48.814;9.132;2022-09-01T01:18:48;8.47;;;7.10;;
677;SDS011;321;48.814;9.132;2022-09-01T01:21:17;6.73;;;6.13;;
677;SDS011;321;48.814;9.132;2022-09-01T01:24:17;9.77;;;7.03;;
677;SDS011;321;48.814;9.132;2022-09-01T01:26:52;8.80;;;6.53;;
677;SDS011;321;48.814;9.132;2022-09-01T01:29:34;6.70;;;6.10;;
677;SDS011;321;48.814;9.132;2022-09-01T01:32:04;7.80;;;7.03;;
677;SDS011;321;48.814;9.132;2022-09-01T01:34:37;8.97;;;7.30;;
677;SDS011;321;48.814;9.132;2022-09-01T01:37:09;7.87;;;7.00;;
677;SDS011;321;48.814;9.132;2022-09-01T01:39:38;9.43;;;7.23;;
677;SDS011;321;48.814;9.132;2022-09-01T01:42:06;7.53;;;6.80;;
677;SDS011;321;48.814;9.132;2022-09-01T01:44:34;7.07;;;6.10;;
677;SDS011;321;48.814;9.132;2022-09-01T01:47:02;7.37;;;6.70;;
677;SDS011;321;48.814;9.132;2022-09-01T01:49:33;7.03;;;6.40;;
677;SDS011;321;48.814;9.132;2022-09-01T01:51:59;8.10;;;7.30;;
677;SDS011;321;48.814;9.132;2022-09-01T01:54:25;9.50;;;6.73;;
677;SDS011;321;48.814;9.132;2022-09-01T01:56:53;6.70;;;6.07;;
677;SDS011;321;48.814;9.132;2022-09-01T01:59:19;8.23;;;6.40;;
677;SDS011;321;48.814;9.132;2022-09-01T02:01:48;7.33;;;6.63;;
677;SDS011;321;48.814;9.132;2022-09-01T02:04:15;6.77;;;6.17;;
677;SDS011;321;48.814;9.132;2022-09-01T02:06:43;9.53;;;7.27;;
677;SDS011;321;48.814;9.132;2022-09-01T02:09:10;7.50;;;6.80;;
677;SDS011;321;48.814;9.132;2022-09-01T02:11:36;7.87;;;7.13;;
677;SDS011;321;48.814;9.132;2022-09-01T02:14:03;10.93;;;7.13;;
677;SDS011;321;48.814;9.132;2022-09-01T02:16:30;7.30;;;6.60;;
677;SDS011;321;48.814;9.132;2022-09-01T02:18:57;8.73;;;7.50;;
677;SDS011;321;48.814;9.132;2022-09-01T02:21:24;6.57;;;5.97;;
677;SDS011;321;48.814;9.132;2022-09-01T02:24:01;8.70;;;6.50;;
677;SDS011;321;48.814;9.132;2022-09-01T02:26:32;7.30;;;6.50;;
677;SDS011;321;48.814;9.132;2022-09-01T02:29:03;7.37;;;6.60;;
677;SDS011;321;48.814;9.132;2022-09-01T02:31:34;6.20;;;5.60;;
677;SDS011;321;48.814;9.132;2022-09-01T02:34:04;6.23;;;5.70;;
677;SDS011;321;48.814;9.132;2022-09-01T02:36:34;6.07;;;5.50;;
677;SDS011;321;48.814;9.132;2022-09-01T02:39:04;8.37;;;7.27;;
677;SDS011;321;48.814;9.132;2022-09-01T02:41:30;7.10;;;6.40;;
677;SDS011;321;48.814;9.132;2022-09-01T02:43:58;9.07;;;5.57;;
677;SDS011;321;48.814;9.132;2022-09-01T02:46:26;6.00;;;5.40;;
677;SDS011;321;48.814;9.132;2022-09-01T02:48:53;7.77;;;5.80;;
677;SDS011;321;48.814;9.132;2022-09-01T02:51:23;6.30;;;5.70;;
677;SDS011;321;48.814;9.132;2022-09-01T02:53:51;6.93;;;6.23;;
677;SDS011;321;48.814;9.132;2022-09-01T02:56:18;7.30;;;6.60;;
677;SDS011;321;48.814;9.132;2022-09-01T02:58:46;6.67;;;5.93;;
677;SDS011;321;48.814;9.132;2022-09-01T03:01:17;7.53;;;6.83;;
677;SDS011;321;48.814;9.132;2022-09-01T03:03:47;6.70;;;6.00;;
677;SDS011;321;48.814;9.132;2022-09-01T03:06:13;9.27;;;6.67;;
677;SDS011;321;48.814;9.132;2022-09-01T03:08:42;7.57;;;6.77;;
677;SDS011;321;48.814;9.132;2022-09-01T03:11:08;6.27;;;5.77;;
677;SDS011;321;48.814;9.132;2022-09-01T03:13:35;8.13;;;6.17;;
677;SDS011;321;48.814;9.132;2022-09-01T03:16:03;6.20;;;5.60;;
677;SDS011;321;48.814;9.132;2022-09-01T03:18:30;7.07;;;6.37;;
677;SDS011;321;48.814;9.132;2022-09-01T03:20:55;7.80;;;6.70;;
677;SDS011;321;48.814;9.132;2022-09-01T03:23:21;7.60;;;6.80;;
677;SDS011;321;48.814;9.132;2022-09-01T03:25:49;7.10;;;5.77;;
677;SDS011;321;48.814;9.132;2022-09-01T03:28:15;9.97;;;6.57;;
677;SDS011;321;48.814;9.132;2022-09-01T03:30:46;6.60;;;5.90;;
677;SDS011;321;48.814;9.132;2022-09-01T03:33:13;6.63;;;5.73;;
677;SDS011;321;48.814;9.132;2022-09-01T03:35:41;7.30;;;6.63;;
677;SDS011;321;48.814;9.132;2022-09-01T03:38:08;6.70;;;6.13;;
677;SDS011;321;48.814;9.132;2022-09-01T03:40:39;6.83;;;5.70;;
677;SDS011;321;48.814;9.132;2022-09-01T03:43:06;6.13;;;5.53;;
677;SDS011;321;48.814;9.132;2022-09-01T03:45:37;6.30;;;5.80;;
677;SDS011;321;48.814;9.132;2022-09-01T03:48:05;6.20;;;5.20;;
677;SDS011;321;48.814;9.132;2022-09-01T03:50:33;7.97;;;7.23;;
677;SDS011;321;48.814;9.132;2022-09-01T03:53:00;6.40;;;5.40;;
677;SDS011;321;48.814;9.132;2022-09-01T03:55:27;9.77;;;6.10;;
677;SDS011;321;48.814;9.132;2022-09-01T03:57:56;6.70;;;6.10;;
677;SDS011;321;48.814;9.132;2022-09-01T04:00:31;7.13;;;6.23;;
677;SDS011;321;48.814;9.132;2022-09-01T04:03:03;8.63;;;6.47;;
677;SDS011;321;48.814;9.132;2022-09-01T04:05:32;7.90;;;6.53;;
677;SDS011;321;48.814;9.132;2022-09-01T04:08:02;6.53;;;5.90;;
677;SDS011;321;48.814;9.132;2022-09-01T04:10:31;7.23;;;6.23;;
677;SDS011;321;48.814;9.132;2022-09-01T04:12:58;7.23;;;6.20;;
677;SDS011;321;48.814;9.132;2022-09-01T04:15:25;5.83;;;5.07;;
677;SDS011;321;48.814;9.132;2022-09-01T04:17:52;5.93;;;5.27;;
677;SDS011;321;48.814;9.132;2022-09-01T04:20:44;5.53;;;4.67;;
677;SDS011;321;48.814;9.132;2022-09-01T04:23:28;5.50;;;4.90;;
677;SDS011;321;48.814;9.132;2022-09-01T04:25:58;6.10;;;5.60;;
677;SDS011;321;48.814;9.132;2022-09-01T04:28:33;5.20;;;4.70;;
677;SDS011;321;48.814;9.132;2022-09-01T04:31:18;6.30;;;5.70;;
677;SDS011;321;48.814;9.132;2022-09-01T04:33:46;6.87;;;6.17;;
677;SDS011;321;48.814;9.132;2022-09-01T04:38:47;6.03;;;5.53;;
677;SDS011;321;48.814;9.132;2022-09-01T04:41:18;5.60;;;5.10;;
677;SDS011;321;48.814;9.132;2022-09-01T04:43:45;8.73;;;5.80;;
677;SDS011;321;48.814;9.132;2022-09-01T04:46:12;5.23;;;4.80;;
677;SDS011;321;48.814;9.132;2022-09-01T04:48:39;6.57;;;5.97;;
677;SDS011;321;48.814;9.132;2022-09-01T04:51:09;6.10;;;4.40;;
677;SDS011;321;48.814;9.132;2022-09-01T04:53:36;8.43;;;5.13;;
677;SDS011;321;48.814;9.132;2022-09-01T04:56:07;5.00;;;4.57;;
677;SDS011;321;48.814;9.132;2022-09-01T04:58:38;6.90;;;6.07;;
677;SDS011;321;48.814;9.132;2022-09-01T05:01:12;5.97;;;5.37;;
677;SDS011;321;48.814;9.132;2022-09-01T05:03:38;8.43;;;6.60;;
677;SDS011;321;48.814;9.132;2022-09-01T05:06:04;6.67;;;5.97;;
677;SDS011;321;48.814;9.132;2022-09-01T05:18:18;5.80;;;5.20;;
677;SDS011;321;48.814;9.132;2022-09-01T05:20:52;6.03;;;5.00;;
677;SDS011;321;48.814;9.132;2022-09-01T05:23:18;5.07;;;4.60;;
677;SDS011;321;48.814;9.132;2022-09-01T05:25:46;7.83;;;5.20;;
677;SDS011;321;48.814;9.132;2022-09-01T05:28:14;8.37;;;5.10;;
677;SDS011;321;48.814;9.132;2022-09-01T05:30:43;9.83;;;6.90;;
677;SDS011;321;48.814;9.132;2022-09-01T05:33:11;10.60;;;5.10;;
677;SDS011;321;48.814;9.132;2022-09-01T05:35:41;6.97;;;6.17;;
677;SDS011;321;48.814;9.132;2022-09-01T05:38:16;5.90;;;5.30;;
677;SDS011;321;48.814;9.132;2022-09-01T05:40:42;5.50;;;4.93;;
677;SDS011;321;48.814;9.132;2022-09-01T05:43:09;6.43;;;5.57;;
677;SDS011;321;48.814;9.132;2022-09-01T05:45:41;6.83;;;6.23;;
677;SDS011;321;48.814;9.132;2022-09-01T05:48:07;6.70;;;5.40;;
677;SDS011;321;48.814;9.132;2022-09-01T05:50:34;5.93;;;5.43;;
677;SDS011;321;48.814;9.132;2022-09-01T05:53:02;7.43;;;5.73;;
677;SDS011;321;48.814;9.132;2022-09-01T05:55:28;6.00;;;4.40;;
677;SDS011;321;48.814;9.132;2022-09-01T05:57:59;8.63;;;6.17;;
677;SDS011;321;48.814;9.132;2022-09-01T06:00:25;5.83;;;5.37;;
677;SDS011;321;48.814;9.132;2022-09-01T06:02:59;7.23;;;6.57;;
677;SDS011;321;48.814;9.132;2022-09-01T06:05:28;6.40;;;5.80;;
677;SDS011;321;48.814;9.132;2022-09-01T06:07:55;8.27;;;6.03;;
677;SDS011;321;48.814;9.132;2022-09-01T06:10:21;5.60;;;5.10;;
677;SDS011;321;48.814;9.132;2022-09-01T06:12:48;5.60;;;5.10;;
677;SDS011;321;48.814;9.132;2022-09-01T06:15:17;5.97;;;5.47;;
677;SDS011;321;48.814;9.132;2022-09-01T06:17:44;7.33;;;6.50;;
677;SDS011;321;48.814;9.132;2022-09-01T06:20:11;8.00;;;6.97;;
677;SDS011;321;48.814;9.132;2022-09-01T06:22:37;7.40;;;6.60;;
677;SDS011;321;48.814;9.132;2022-09-01T06:25:05;7.80;;;7.10;;
677;SDS011;321;48.814;9.132;2022-09-01T06:27:32;6.07;;;5.47;;
677;SDS011;321;48.814;9.132;2022-09-01T06:30:02;5.90;;;5.40;;
677;SDS011;321;48.814;9.132;2022-09-01T06:32:38;8.33;;;5.97;;
677;SDS011;321;48.814;9.132;2022-09-01T06:35:08;8.53;;;6.63;;
677;SDS011;321;48.814;9.132;2022-09-01T06:37:36;8.40;;;6.10;;
677;SDS011;321;48.814;9.132;2022-09-01T06:40:02;6.70;;;6.10;;
677;SDS011;321;48.814;9.132;2022-09-01T06:42:28;7.20;;;6.03;;
677;SDS011;321;48.814;9.132;2022-09-01T06:44:59;6.80;;;6.10;;
677;SDS011;321;48.814;9.132;2022-09-01T06:47:25;8.67;;;7.27;;
677;SDS011;321;48.814;9.132;2022-09-01T06:49:52;6.93;;;6.17;;
677;SDS011;321;48.814;9.132;2022-09-01T06:52:23;13.80;;;7.33;;
677;SDS011;321;48.814;9.132;2022-09-01T06:54:49;6.90;;;6.03;;
677;SDS011;321;48.814;9.132;2022-09-01T06:57:17;6.30;;;5.47;;
677;SDS011;321;48.814;9.132;2022-09-01T06:59:43;5.20;;;4.80;;
677;SDS011;321;48.814;9.132;2022-09-01T07:02:09;6.10;;;5.50;;
677;SDS011;321;48.814;9.132;2022-09-01T07:04:40;7.00;;;6.07;;
677;SDS011;321;48.814;9.132;2022-09-01T07:07:08;9.20;;;5.83;;
677;SDS011;321;48.814;9.132;2022-09-01T07:09:34;6.97;;;5.27;;
677;SDS011;321;48.814;9.132;2022-09-01T07:12:00;5.63;;;4.53;;
677;SDS011;321;48.814;9.132;2022-09-01T07:14:28;5.90;;;5.40;;
677;SDS011;321;48.814;9.132;2022-09-01T07:16:54;7.23;;;5.87;;
677;SDS011;321;48.814;9.132;2022-09-01T07:19:21;6.07;;;5.07;;
677;SDS011;321;48.814;9.132;2022-09-01T07:21:47;6.93;;;5.00;;
677;SDS011;321;48.814;9.132;2022-09-01T07:24:13;5.90;;;5.10;;
677;SDS011;321;48.814;9.132;2022-09-01T07:26:42;6.23;;;5.57;;
677;SDS011;321;48.814;9.132;2022-09-01T07:29:13;5.90;;;4.73;;
677;SDS011;321;48.814;9.132;2022-09-01T07:31:40;6.43;;;4.70;;
677;SDS011;321;48.814;9.132;2022-09-01T07:34:08;6.90;;;5.03;;
677;SDS011;321;48.814;9.132;2022-09-01T07:36:37;4.63;;;4.10;;
677;SDS011;321;48.814;9.132;2022-09-01T07:39:04;5.73;;;5.10;;
677;SDS011;321;48.814;9.132;2022-09-01T07:41:30;5.17;;;4.67;;
677;SDS011;321;48.814;9.132;2022-09-01T07:43:59;8.90;;;5.60;;
677;SDS011;321;48.814;9.132;2022-09-01T07:46:27;6.17;;;4.63;;
677;SDS011;321;48.814;9.132;2022-09-01T07:48:55;5.17;;;4.30;;
677;SDS011;321;48.814;9.132;2022-09-01T07:51:22;5.27;;;4.03;;
677;SDS011;321;48.814;9.132;2022-09-01T07:53:50;5.80;;;4.10;;
677;SDS011;321;48.814;9.132;2022-09-01T07:59:39;4.20;;;3.80;;
677;SDS011;321;48.814;9.132;2022-09-01T08:02:06;9.10;;;3.60;;
677;SDS011;321;48.814;9.132;2022-09-01T08:04:33;3.87;;;3.47;;
677;SDS011;321;48.814;9.132;2022-09-01T08:06:59;9.13;;;4.33;;
677;SDS011;321;48.814;9.132;2022-09-01T08:09:27;7.73;;;4.90;;
677;SDS011;321;48.814;9.132;2022-09-01T08:11:53;5.10;;;4.10;;
677;SDS011;321;48.814;9.132;2022-09-01T08:14:19;4.47;;;4.07;;
677;SDS011;321;48.814;9.132;2022-09-01T08:16:45;5.07;;;4.57;;
677;SDS011;321;48.814;9.132;2022-09-01T08:19:11;4.90;;;4.03;;
677;SDS011;321;48.814;9.132;2022-09-01T08:21:37;5.37;;;4.40;;
677;SDS011;321;48.814;9.132;2022-09-01T08:24:04;4.60;;;3.80;;
677;SDS011;321;48.814;9.132;2022-09-01T08:26:30;5.43;;;3.80;;
677;SDS011;321;48.814;9.132;2022-09-01T08:28:56;4.07;;;3.17;;
677;SDS011;321;48.814;9.132;2022-09-01T08:31:23;4.97;;;3.93;;
677;SDS011;321;48.814;9.132;2022-09-01T08:33:49;6.30;;;4.47;;
677;SDS011;321;48.814;9.132;2022-09-01T08:36:16;5.53;;;3.27;;
677;SDS011;321;48.814;9.132;2022-09-01T08:38:42;3.97;;;3.57;;
677;SDS011;321;48.814;9.132;2022-09-01T08:41:13;4.93;;;3.50;;
677;SDS011;321;48.814;9.132;2022-09-01T08:46:23;4.53;;;4.13;;
677;SDS011;321;48.814;9.132;2022-09-01T08:49:03;4.63;;;3.90;;
677;SDS011;321;48.814;9.132;2022-09-01T08:55:08;4.00;;;3.60;;
677;SDS011;321;48.814;9.132;2022-09-01T08:57:15;4.10;;;3.67;;
677;SDS011;321;48.814;9.132;2022-09-01T08:59:47;2.70;;;2.50;;
677;SDS011;321;48.814;9.132;2022-09-01T09:02:24;3.53;;;2.70;;
677;SDS011;321;48.814;9.132;2022-09-01T09:05:07;2.97;;;2.20;;
677;SDS011;321;48.814;9.132;2022-09-01T09:13:59;2.70;;;2.20;;
677;SDS011;321;48.814;9.132;2022-09-01T09:21:57;4.50;;;2.20;;
677;SDS011;321;48.814;9.132;2022-09-01T09:26:57;3.40;;;3.10;;
677;SDS011;321;48.814;9.132;2022-09-01T09:29:26;3.20;;;2.87;;
677;SDS011;321;48.814;9.132;2022-09-01T09:32:00;3.87;;;3.47;;
677;SDS011;321;48.814;9.132;2022-09-01T09:34:30;3.73;;;2.53;;
677;SDS011;321;48.814;9.132;2022-09-01T09:37:00;3.63;;;2.60;;
677;SDS011;321;48.814;9.132;2022-09-01T09:39:44;4.00;;;2.80;;
677;SDS011;321;48.814;9.132;2022-09-01T09:42:11;2.53;;;2.30;;
677;SDS011;321;48.814;9.132;2022-09-01T09:44:39;5.57;;;2.77;;
677;SDS011;321;48.814;9.132;2022-09-01T09:47:08;2.60;;;2.27;;
677;SDS011;321;48.814;9.132;2022-09-01T09:49:35;2.63;;;2.20;;
677;SDS011;321;48.814;9.132;2022-09-01T09:54:28;3.37;;;3.07;;
677;SDS011;321;48.814;9.132;2022-09-01T09:59:40;6.10;;;3.10;;
677;SDS011;321;48.814;9.132;2022-09-01T10:02:42;4.30;;;2.83;;
677;SDS011;321;48.814;9.132;2022-09-01T10:07:56;2.87;;;2.53;;
677;SDS011;321;48.814;9.132;2022-09-01T10:13:00;3.43;;;2.63;;
677;SDS011;321;48.814;9.132;2022-09-01T10:15:29;3.17;;;2.87;;
677;SDS011;321;48.814;9.132;2022-09-01T10:17:59;2.60;;;2.40;;
677;SDS011;321;48.814;9.132;2022-09-01T10:20:31;3.20;;;2.73;;
677;SDS011;321;48.814;9.132;2022-09-01T10:23:00;3.83;;;2.60;;
677;SDS011;321;48.814;9.132;2022-09-01T10:25:28;4.80;;;2.10;;
677;SDS011;321;48.814;9.132;2022-09-01T10:27:58;7.50;;;2.70;;
677;SDS011;321;48.814;9.132;2022-09-01T10:30:32;2.90;;;2.60;;
677;SDS011;321;48.814;9.132;2022-09-01T10:33:00;3.27;;;2.77;;
677;SDS011;321;48.814;9.132;2022-09-01T10:37:52;2.70;;;2.20;;
677;SDS011;321;48.814;9.132;2022-09-01T10:40:20;3.40;;;3.00;;
677;SDS011;321;48.814;9.132;2022-09-01T10:45:49;2.70;;;2.50;;
677;SDS011;321;48.814;9.132;2022-09-01T10:50:51;2.63;;;2.00;;
677;SDS011;321;48.814;9.132;2022-09-01T10:56:18;2.57;;;2.30;;
677;SDS011;321;48.814;9.132;2022-09-01T11:04:18;1.60;;;1.40;;
677;SDS011;321;48.814;9.132;2022-09-01T11:09:46;2.07;;;1.60;;
677;SDS011;321;48.814;9.132;2022-09-01T11:12:46;2.77;;;2.13;;
677;SDS011;321;48.814;9.132;2022-09-01T11:20:27;1.93;;;1.60;;
677;SDS011;321;48.814;9.132;2022-09-01T11:23:20;5.23;;;2.60;;
677;SDS011;321;48.814;9.132;2022-09-01T11:25:54;4.43;;;2.27;;
677;SDS011;321;48.814;9.132;2022-09-01T11:30:56;3.20;;;2.30;;
677;SDS011;321;48.814;9.132;2022-09-01T11:36:17;2.63;;;2.20;;
677;SDS011;321;48.814;9.132;2022-09-01T11:39:10;3.07;;;2.60;;
677;SDS011;321;48.814;9.132;2022-09-01T11:42:10;1.93;;;1.73;;
677;SDS011;321;48.814;9.132;2022-09-01T11:44:56;2.27;;;1.67;;
677;SDS011;321;48.814;9.132;2022-09-01T11:47:37;2.97;;;1.80;;
677;SDS011;321;48.814;9.132;2022-09-01T11:52:57;2.23;;;1.70;;
677;SDS011;321;48.814;9.132;2022-09-01T11:55:29;3.50;;;2.07;;
677;SDS011;321;48.814;9.132;2022-09-01T11:58:03;2.50;;;1.50;;
677;SDS011;321;48.814;9.132;2022-09-01T12:00:35;3.57;;;1.87;;
677;SDS011;321;48.814;9.132;2022-09-01T12:05:51;1.93;;;1.70;;
677;SDS011;321;48.814;9.132;2022-09-01T12:08:23;4.47;;;2.33;;
677;SDS011;321;48.814;9.132;2022-09-01T12:10:59;2.10;;;1.90;;
677;SDS011;321;48.814;9.132;2022-09-01T12:13:54;2.33;;;1.90;;
677;SDS011;321;48.814;9.132;2022-09-01T12:16:21;3.00;;;2.03;;
677;SDS011;321;48.814;9.132;2022-09-01T12:18:51;2.40;;;2.00;;
677;SDS011;321;48.814;9.132;2022-09-01T12:21:24;1.93;;;1.43;;
677;SDS011;321;48.814;9.132;2022-09-01T12:24:15;3.13;;;2.00;;
677;SDS011;321;48.814;9.132;2022-09-01T12:26:47;3.17;;;1.53;;
677;SDS011;321;48.814;9.132;2022-09-01T12:29:14;3.50;;;2.10;;
677;SDS011;321;48.814;9.132;2022-09-01T12:31:41;3.50;;;2.30;;
677;SDS011;321;48.814;9.132;2022-09-01T12:34:22;4.93;;;2.00;;
677;SDS011;321;48.814;9.132;2022-09-01T12:39:51;2.40;;;2.03;;
677;SDS011;321;48.814;9.132;2022-09-01T12:42:25;2.90;;;2.03;;
677;SDS011;321;48.814;9.132;2022-09-01T12:45:00;1.90;;;1.53;;
677;SDS011;321;48.814;9.132;2022-09-01T12:49:58;2.93;;;2.10;;
677;SDS011;321;48.814;9.132;2022-09-01T12:52:27;2.43;;;1.83;;
677;SDS011;321;48.814;9.132;2022-09-01T12:57:29;3.70;;;2.10;;
677;SDS011;321;48.814;9.132;2022-09-01T13:00:16;1.67;;;1.30;;
677;SDS011;321;48.814;9.132;2022-09-01T13:02:49;2.23;;;1.47;;
677;SDS011;321;48.814;9.132;2022-09-01T13:05:31;2.20;;;2.00;;
677;SDS011;321;48.814;9.132;2022-09-01T13:08:02;2.23;;;1.90;;
677;SDS011;321;48.814;9.132;2022-09-01T13:10:30;1.67;;;1.53;;
677;SDS011;321;48.814;9.132;2022-09-01T13:13:01;1.80;;;1.70;;
677;SDS011;321;48.814;9.132;2022-09-01T13:15:27;2.20;;;1.60;;
677;SDS011;321;48.814;9.132;2022-09-01T13:17:54;2.20;;;1.33;;
677;SDS011;321;48.814;9.132;2022-09-01T13:20:20;2.17;;;1.80;;
677;SDS011;321;48.814;9.132;2022-09-01T13:22:46;2.63;;;1.53;;
677;SDS011;321;48.814;9.132;2022-09-01T13:25:13;1.87;;;1.43;;
677;SDS011;321;48.814;9.132;2022-09-01T13:27:41;1.63;;;1.37;;
677;SDS011;321;48.814;9.132;2022-09-01T13:30:12;2.20;;;2.00;;
677;SDS011;321;48.814;9.132;2022-09-01T13:32:40;1.73;;;1.40;;
677;SDS011;321;48.814;9.132;2022-09-01T13:35:07;2.17;;;1.40;;
677;SDS011;321;48.814;9.132;2022-09-01T13:37:33;1.83;;;1.60;;
677;SDS011;321;48.814;9.132;2022-09-01T13:39:59;1.83;;;1.63;;
677;SDS011;321;48.814;9.132;2022-09-01T13:42:25;2.90;;;2.27;;
677;SDS011;321;48.814;9.132;2022-09-01T13:44:51;2.47;;;2.27;;
677;SDS011;321;48.814;9.132;2022-09-01T13:47:17;2.53;;;1.80;;
677;SDS011;321;48.814;9.132;2022-09-01T13:49:43;2.30;;;2.10;;
677;SDS011;321;48.814;9.132;2022-09-01T13:52:09;3.40;;;1.90;;
677;SDS011;321;48.814;9.132;2022-09-01T13:54:35;2.07;;;1.47;;
677;SDS011;321;48.814;9.132;2022-09-01T13:57:01;1.73;;;1.33;;
677;SDS011;321;48.814;9.132;2022-09-01T13:59:27;1.73;;;1.40;;
677;SDS011;321;48.814;9.132;2022-09-01T14:01:54;2.43;;;1.70;;
677;SDS011;321;48.814;9.132;2022-09-01T14:04:20;2.53;;;2.03;;
677;SDS011;321;48.814;9.132;2022-09-01T14:06:47;3.10;;;1.83;;
677;SDS011;321;48.814;9.132;2022-09-01T14:09:13;2.30;;;2.10;;
677;SDS011;321;48.814;9.132;2022-09-01T14:11:40;1.67;;;1.33;;
677;SDS011;321;48.814;9.132;2022-09-01T14:14:06;1.77;;;1.53;;
677;SDS011;321;48.814;9.132;2022-09-01T14:16:32;1.97;;;1.70;;
677;SDS011;321;48.814;9.132;2022-09-01T14:18:58;2.00;;;1.80;;
677;SDS011;321;48.814;9.132;2022-09-01T14:21:24;1.47;;;1.37;;
677;SDS011;321;48.814;9.132;2022-09-01T14:23:53;2.20;;;1.80;;
677;SDS011;321;48.814;9.132;2022-09-01T14:26:21;1.90;;;1.70;;
677;SDS011;321;48.814;9.132;2022-09-01T14:28:48;1.67;;;1.53;;
677;SDS011;321;48.814;9.132;2022-09-01T14:31:16;1.70;;;1.43;;
677;SDS011;321;48.814;9.132;2022-09-01T14:33:43;1.87;;;1.60;;
677;SDS011;321;48.814;9.132;2022-09-01T14:36:15;3.20;;;2.53;;
677;SDS011;321;48.814;9.132;2022-09-01T14:38:43;2.40;;;1.83;;
677;SDS011;321;48.814;9.132;2022-09-01T14:41:13;1.80;;;1.37;;
677;SDS011;321;48.814;9.132;2022-09-01T14:43:39;3.30;;;1.70;;
677;SDS011;321;48.814;9.132;2022-09-01T14:46:07;2.07;;;1.60;;
677;SDS011;321;48.814;9.132;2022-09-01T14:48:35;2.00;;;1.77;;
677;SDS011;321;48.814;9.132;2022-09-01T14:51:08;2.40;;;2.13;;
677;SDS011;321;48.814;9.132;2022-09-01T14:53:44;2.30;;;2.10;;
677;SDS011;321;48.814;9.132;2022-09-01T14:56:09;1.90;;;1.67;;
677;SDS011;321;48.814;9.132;2022-09-01T14:58:35;1.73;;;1.43;;
677;SDS011;321;48.814;9.132;2022-09-01T15:01:01;2.57;;;1.60;;
677;SDS011;321;48.814;9.132;2022-09-01T15:03:30;1.60;;;1.37;;
677;SDS011;321;48.814;9.132;2022-09-01T15:05:56;1.90;;;1.37;;
677;SDS011;321;48.814;9.132;2022-09-01T15:08:22;2.00;;;1.43;;
677;SDS011;321;48.814;9.132;2022-09-01T15:10:50;2.93;;;2.00;;
677;SDS011;321;48.814;9.132;2022-09-01T15:13:20;2.00;;;1.57;;
677;SDS011;321;48.814;9.132;2022-09-01T15:15:46;1.97;;;1.67;;
677;SDS011;321;48.814;9.132;2022-09-01T15:18:12;1.50;;;1.00;;
677;SDS011;321;48.814;9.132;2022-09-01T15:20:39;1.80;;;1.37;;
677;SDS011;321;48.814;9.132;2022-09-01T15:23:09;2.03;;;1.60;;
677;SDS011;321;48.814;9.132;2022-09-01T15:25:38;1.70;;;1.40;;
677;SDS011;321;48.814;9.132;2022-09-01T15:28:04;1.63;;;1.50;;
677;SDS011;321;48.814;9.132;2022-09-01T15:30:30;1.80;;;1.47;;
677;SDS011;321;48.814;9.132;2022-09-01T15:32:59;3.07;;;2.00;;
677;SDS011;321;48.814;9.132;2022-09-01T15:35:28;1.60;;;1.40;;
677;SDS011;321;48.814;9.132;2022-09-01T15:37:54;5.13;;;2.13;;
677;SDS011;321;48.814;9.132;2022-09-01T15:40:21;2.30;;;1.83;;
677;SDS011;321;48.814;9.132;2022-09-01T15:42:48;1.93;;;1.63;;
677;SDS011;321;48.814;9.132;2022-09-01T15:45:15;1.60;;;1.50;;
677;SDS011;321;48.814;9.132;2022-09-01T15:47:44;2.70;;;1.20;;
677;SDS011;321;48.814;9.132;2022-09-01T15:50:12;1.30;;;0.93;;
677;SDS011;321;48.814;9.132;2022-09-01T15:52:54;2.77;;;1.67;;
677;SDS011;321;48.814;9.132;2022-09-01T15:55:24;1.50;;;1.33;;
677;SDS011;321;48.814;9.132;2022-09-01T15:58:14;2.00;;;1.63;;
677;SDS011;321;48.814;9.132;2022-09-01T16:00:41;1.50;;;1.40;;
677;SDS011;321;48.814;9.132;2022-09-01T16:03:08;1.70;;;1.60;;
677;SDS011;321;48.814;9.132;2022-09-01T16:05:34;1.93;;;1.43;;
677;SDS011;321;48.814;9.132;2022-09-01T16:08:02;1.50;;;1.20;;
677;SDS011;321;48.814;9.132;2022-09-01T16:10:29;1.97;;;1.50;;
677;SDS011;321;48.814;9.132;2022-09-01T16:12:55;2.47;;;1.40;;
677;SDS011;321;48.814;9.132;2022-09-01T16:15:22;2.67;;;1.80;;
677;SDS011;321;48.814;9.132;2022-09-01T16:20:20;1.33;;;1.13;;
677;SDS011;321;48.814;9.132;2022-09-01T16:22:52;2.23;;;2.03;;
677;SDS011;321;48.814;9.132;2022-09-01T16:25:32;1.50;;;1.40;;
677;SDS011;321;48.814;9.132;2022-09-01T16:28:02;3.40;;;1.83;;
677;SDS011;321;48.814;9.132;2022-09-01T16:30:34;1.57;;;1.47;;
677;SDS011;321;48.814;9.132;2022-09-01T16:33:03;2.60;;;1.50;;
677;SDS011;321;48.814;9.132;2022-09-01T16:35:52;2.43;;;1.27;;
677;SDS011;321;48.814;9.132;2022-09-01T16:38:33;1.83;;;1.33;;
677;SDS011;321;48.814;9.132;2022-09-01T16:43:48;2.00;;;1.60;;
677;SDS011;321;48.814;9.132;2022-09-01T16:46:21;1.50;;;1.23;;
677;SDS011;321;48.814;9.132;2022-09-01T16:55:06;3.40;;;1.73;;
677;SDS011;321;48.814;9.132;2022-09-01T16:57:50;2.50;;;1.57;;
677;SDS011;321;48.814;9.132;2022-09-01T17:00:21;2.00;;;1.30;;
677;SDS011;321;48.814;9.132;2022-09-01T17:05:39;1.80;;;1.40;;
677;SDS011;321;48.814;9.132;2022-09-01T17:08:16;1.70;;;1.50;;
677;SDS011;321;48.814;9.132;2022-09-01T17:10:56;2.13;;;1.40;;
677;SDS011;321;48.814;9.132;2022-09-01T17:13:40;2.10;;;1.60;;
677;SDS011;321;48.814;9.132;2022-09-01T17:19:13;2.13;;;1.90;;
677;SDS011;321;48.814;9.132;2022-09-01T17:21:44;2.87;;;2.43;;
677;SDS011;321;48.814;9.132;2022-09-01T17:24:36;2.77;;;1.77;;
677;SDS011;321;48.814;9.132;2022-09-01T17:27:52;3.40;;;1.73;;
677;SDS011;321;48.814;9.132;2022-09-01T17:30:04;1.60;;;1.50;;
677;SDS011;321;48.814;9.132;2022-09-01T17:36:04;2.33;;;1.37;;
677;SDS011;321;48.814;9.132;2022-09-01T17:55:50;2.47;;;1.93;;
677;SDS011;321;48.814;9.132;2022-09-01T17:58:37;2.40;;;1.60;;
677;SDS011;321;48.814;9.132;2022-09-01T18:01:08;1.80;;;1.53;;
677;SDS011;321;48.814;9.132;2022-09-01T18:09:17;1.70;;;1.50;;
677;SDS011;321;48.814;9.132;2022-09-01T18:11:48;2.23;;;1.70;;
677;SDS011;321;48.814;9.132;2022-09-01T18:14:26;1.70;;;1.60;;
677;SDS011;321;48.814;9.132;2022-09-01T18:17:13;2.23;;;2.03;;
677;SDS011;321;48.814;9.132;2022-09-01T18:20:10;3.77;;;1.90;;